createdAt,value
2022-07-25T00:02:07.608Z,4.38
2022-07-25T00:07:29.041Z,5.10
2022-07-25T00:09:56.785Z,4.53
2022-07-25T00:12:25.692Z,4.57
2022-07-25T00:14:53.329Z,4.38
2022-07-25T00:17:20.974Z,4.72
2022-07-25T00:19:48.636Z,4.90
2022-07-25T00:22:16.272Z,4.63
2022-07-25T00:24:43.823Z,4.88
2022-07-25T00:27:11.489Z,4.60
2022-07-25T00:29:40.421Z,4.40
2022-07-25T00:32:08.036Z,4.97
2022-07-25T00:34:35.647Z,4.63
2022-07-25T00:37:03.200Z,4.53
2022-07-25T00:39:30.881Z,5.20
2022-07-25T00:41:58.504Z,4.82
2022-07-25T00:44:26.689Z,4.70
2022-07-25T00:46:55.790Z,4.38
2022-07-25T00:49:23.673Z,4.50
2022-07-25T00:51:51.352Z,5.20
2022-07-25T00:54:19.050Z,4.72
2022-07-25T00:56:46.630Z,4.70
2022-07-25T00:59:14.306Z,4.88
2022-07-25T01:01:42.953Z,4.90
2022-07-25T01:04:11.977Z,5.20
2022-07-25T01:06:39.600Z,4.75
2022-07-25T01:09:23.385Z,5.00
2022-07-25T01:11:51.060Z,4.65
2022-07-25T01:14:18.618Z,4.95
2022-07-25T01:16:46.303Z,4.55
2022-07-25T01:19:15.208Z,4.65
2022-07-25T01:21:44.436Z,4.80
2022-07-25T01:24:12.089Z,4.80
2022-07-25T01:26:39.795Z,5.00
2022-07-25T01:29:07.362Z,4.63
2022-07-25T01:31:35.168Z,4.10
2022-07-25T01:34:03.074Z,4.50
2022-07-25T01:36:30.906Z,4.60
2022-07-25T01:39:00.850Z,5.20
2022-07-25T01:41:28.459Z,4.60
2022-07-25T01:43:56.112Z,4.45
2022-07-25T01:46:23.752Z,5.03
2022-07-25T01:48:51.487Z,5.18
2022-07-25T01:51:20.428Z,5.15
2022-07-25T01:53:48.288Z,4.40
2022-07-25T01:56:17.416Z,4.85
2022-07-25T01:58:48.506Z,4.75
2022-07-25T02:01:16.154Z,5.10
2022-07-25T02:03:44.039Z,4.70
2022-07-25T02:06:11.616Z,5.18
2022-07-25T02:08:39.219Z,4.53
2022-07-25T02:11:22.709Z,4.90
2022-07-25T02:13:51.703Z,4.97
2022-07-25T02:16:19.482Z,4.68
2022-07-25T02:18:56.544Z,4.80
2022-07-25T02:21:26.024Z,4.68
2022-07-25T02:23:53.609Z,4.65
2022-07-25T02:26:21.234Z,5.05
2022-07-25T02:28:50.029Z,4.82
2022-07-25T02:31:19.082Z,4.70
2022-07-25T02:33:46.845Z,5.07
2022-07-25T02:36:14.407Z,4.95
2022-07-25T02:38:42.093Z,4.93
2022-07-25T02:41:09.621Z,4.60
2022-07-25T02:43:37.221Z,5.10
2022-07-25T02:46:04.921Z,4.97
2022-07-25T02:48:34.014Z,5.18
2022-07-25T02:51:01.641Z,4.88
2022-07-25T02:53:55.543Z,4.93
2022-07-25T02:56:16.885Z,5.32
2022-07-25T02:58:44.786Z,5.38
2022-07-25T03:01:12.431Z,5.15
2022-07-25T03:03:41.446Z,5.28
2022-07-25T03:06:09.166Z,5.30
2022-07-25T03:08:36.775Z,5.20
2022-07-25T03:11:04.726Z,5.07
2022-07-25T03:13:48.355Z,5.47
2022-07-25T03:16:16.836Z,5.32
2022-07-25T03:18:45.862Z,5.70
2022-07-25T03:21:13.475Z,5.50
2022-07-25T03:23:41.277Z,5.20
2022-07-25T03:26:09.161Z,5.13
2022-07-25T03:28:36.775Z,4.85
2022-07-25T03:31:04.477Z,4.95
2022-07-25T03:33:32.044Z,5.55
2022-07-25T03:36:01.113Z,5.00
2022-07-25T03:38:29.660Z,5.43
2022-07-25T03:40:57.315Z,5.20
2022-07-25T03:43:25.418Z,5.70
2022-07-25T03:45:53.139Z,5.47
2022-07-25T03:48:20.725Z,5.10
2022-07-25T03:50:48.422Z,4.95
2022-07-25T03:53:17.581Z,5.40
2022-07-25T03:55:45.115Z,5.18
2022-07-25T03:58:12.918Z,6.03
2022-07-25T04:00:40.849Z,5.18
2022-07-25T04:03:08.877Z,4.78
2022-07-25T04:05:36.519Z,5.38
2022-07-25T04:08:04.238Z,5.07
2022-07-25T04:10:34.374Z,5.40
2022-07-25T04:13:02.016Z,4.72
2022-07-25T04:15:29.716Z,5.45
2022-07-25T04:17:58.602Z,4.63
2022-07-25T04:20:26.890Z,5.28
2022-07-25T04:22:54.476Z,4.97
2022-07-25T04:25:22.075Z,4.78
2022-07-25T04:27:51.020Z,5.30
2022-07-25T04:30:24.450Z,4.93
2022-07-25T04:32:52.617Z,4.70
2022-07-25T04:35:20.269Z,4.78
2022-07-25T04:37:47.965Z,4.68
2022-07-25T04:40:15.598Z,5.40
2022-07-25T04:42:43.225Z,5.22
2022-07-25T04:45:12.624Z,4.78
2022-07-25T04:50:09.065Z,4.82
2022-07-25T04:52:36.644Z,4.50
2022-07-25T04:55:04.937Z,4.57
2022-07-25T04:57:34.852Z,4.47
2022-07-25T05:00:02.525Z,4.60
2022-07-25T05:02:31.593Z,4.30
2022-07-25T05:07:27.003Z,4.70
2022-07-25T05:09:54.609Z,4.80
2022-07-25T05:12:22.253Z,4.30
2022-07-25T05:14:49.951Z,4.07
2022-07-25T05:17:17.631Z,4.50
2022-07-25T05:19:46.580Z,3.90
2022-07-25T05:22:14.194Z,3.72
2022-07-25T05:24:41.871Z,4.13
2022-07-25T05:27:09.482Z,4.22
2022-07-25T05:29:37.056Z,4.20
2022-07-25T05:32:04.937Z,4.15
2022-07-25T05:34:32.883Z,4.15
2022-07-25T05:37:01.886Z,4.00
2022-07-25T05:39:29.597Z,4.28
2022-07-25T05:41:57.291Z,3.60
2022-07-25T05:44:24.964Z,4.82
2022-07-25T05:46:52.682Z,4.28
2022-07-25T05:49:20.792Z,4.40
2022-07-25T05:51:48.441Z,4.47
2022-07-25T05:54:17.403Z,4.65
2022-07-25T05:56:45.159Z,4.03
2022-07-25T05:59:13.297Z,4.20
2022-07-25T06:01:41.003Z,4.43
2022-07-25T06:04:09.104Z,4.18
2022-07-25T06:06:37.093Z,4.40
2022-07-25T06:09:08.049Z,4.40
2022-07-25T06:11:42.145Z,4.15
2022-07-25T06:14:22.468Z,4.00
2022-07-25T06:16:50.522Z,4.05
2022-07-25T06:19:20.671Z,3.95
2022-07-25T06:21:48.270Z,4.90
2022-07-25T06:24:15.930Z,4.00
2022-07-25T06:26:45.088Z,3.70
2022-07-25T06:31:40.265Z,4.28
2022-07-25T06:34:09.573Z,4.70
2022-07-25T06:36:37.577Z,3.88
2022-07-25T06:39:05.285Z,4.05
2022-07-25T06:41:32.832Z,3.90
2022-07-25T06:44:01.876Z,3.90
2022-07-25T06:46:31.495Z,4.40
2022-07-25T06:48:59.742Z,4.25
2022-07-25T06:51:27.350Z,5.40
2022-07-25T06:53:54.971Z,4.32
2022-07-25T06:56:22.677Z,4.00
2022-07-25T06:58:50.275Z,3.90
2022-07-25T07:01:19.335Z,3.90
2022-07-25T07:06:14.655Z,4.05
2022-07-25T07:08:42.269Z,4.20
2022-07-25T07:11:10.029Z,4.30
2022-07-25T07:13:37.757Z,4.03
2022-07-25T07:16:05.990Z,4.15
2022-07-25T07:18:35.111Z,5.45
2022-07-25T07:23:49.704Z,4.30
2022-07-25T07:26:21.351Z,4.15
2022-07-25T07:28:48.991Z,3.42
2022-07-25T07:31:17.898Z,3.88
2022-07-25T07:33:47.364Z,3.67
2022-07-25T07:38:44.452Z,4.13
2022-07-25T07:41:12.760Z,4.30
2022-07-25T07:43:40.422Z,4.10
2022-07-25T07:46:08.187Z,4.25
2022-07-25T07:48:36.465Z,3.75
2022-07-25T07:51:06.003Z,3.80
2022-07-25T07:53:50.909Z,3.70
2022-07-25T07:56:19.362Z,4.15
2022-07-25T07:58:46.950Z,4.07
2022-07-25T08:01:14.828Z,3.60
2022-07-25T08:03:42.694Z,3.85
2022-07-25T08:06:11.881Z,3.88
2022-07-25T08:11:07.242Z,4.38
2022-07-25T08:13:35.206Z,4.00
2022-07-25T08:16:03.397Z,3.97
2022-07-25T08:18:32.612Z,4.03
2022-07-25T08:21:01.745Z,3.90
2022-07-25T08:23:31.857Z,3.80
2022-07-25T08:25:59.533Z,4.13
2022-07-25T08:28:27.168Z,4.38
2022-07-25T08:30:54.953Z,4.35
2022-07-25T08:33:22.920Z,3.67
2022-07-25T08:35:51.882Z,4.15
2022-07-25T08:38:19.741Z,4.22
2022-07-25T08:40:48.897Z,4.15
2022-07-25T08:46:08.589Z,3.90
2022-07-25T08:48:37.922Z,4.10
2022-07-25T08:51:05.790Z,3.80
2022-07-25T08:53:34.649Z,3.95
2022-07-25T08:56:09.994Z,4.22
2022-07-25T08:58:40.502Z,3.75
2022-07-25T09:01:08.187Z,3.92
2022-07-25T09:03:47.804Z,4.20
2022-07-25T09:06:16.680Z,3.97
2022-07-25T09:08:51.545Z,3.92
2022-07-25T09:11:28.052Z,3.90
2022-07-25T09:14:00.303Z,4.07
2022-07-25T09:16:31.860Z,3.92
2022-07-25T09:19:12.628Z,4.10
2022-07-25T09:21:40.896Z,4.10
2022-07-25T09:24:27.656Z,4.27
2022-07-25T09:26:57.405Z,4.15
2022-07-25T09:29:25.753Z,4.18
2022-07-25T09:31:53.801Z,4.25
2022-07-25T09:34:31.239Z,3.60
2022-07-25T09:36:59.062Z,4.75
2022-07-25T09:39:33.912Z,4.20
2022-07-25T09:42:03.022Z,4.93
2022-07-25T09:44:38.272Z,4.63
2022-07-25T09:47:10.896Z,4.35
2022-07-25T09:49:40.336Z,4.60
2022-07-25T09:52:08.064Z,4.28
2022-07-25T09:54:35.976Z,4.22
2022-07-25T09:57:05.220Z,4.22
2022-07-25T09:59:33.850Z,4.18
2022-07-25T10:02:02.332Z,4.72
2022-07-25T10:04:32.132Z,4.88
2022-07-25T10:07:04.130Z,4.28
2022-07-25T10:09:31.893Z,4.53
2022-07-25T10:12:07.447Z,4.32
2022-07-25T10:14:35.234Z,4.80
2022-07-25T10:17:02.937Z,5.22
2022-07-25T10:19:37.844Z,5.20
2022-07-25T10:22:05.624Z,4.95
2022-07-25T10:24:34.098Z,5.18
2022-07-25T10:27:08.456Z,4.80
2022-07-25T10:29:36.200Z,5.30
2022-07-25T10:32:07.475Z,4.85
2022-07-25T10:34:35.201Z,4.60
2022-07-25T10:37:12.462Z,4.70
2022-07-25T10:39:40.305Z,4.95
2022-07-25T10:42:09.684Z,4.75
2022-07-25T10:44:41.424Z,5.30
2022-07-25T10:47:09.898Z,4.93
2022-07-25T10:49:38.857Z,4.47
2022-07-25T10:52:15.285Z,5.68
2022-07-25T10:54:43.070Z,5.15
2022-07-25T10:57:16.334Z,4.75
2022-07-25T10:59:44.535Z,5.25
2022-07-25T11:02:16.339Z,4.57
2022-07-25T11:04:44.558Z,4.43
2022-07-25T11:07:37.077Z,4.55
2022-07-25T11:10:05.458Z,4.05
2022-07-25T11:12:34.395Z,4.73
2022-07-25T11:17:29.858Z,3.88
2022-07-25T11:19:58.573Z,4.93
2022-07-25T11:22:26.276Z,4.43
2022-07-25T11:24:54.196Z,4.05
2022-07-25T11:27:22.410Z,4.60
2022-07-25T11:29:51.550Z,4.47
2022-07-25T11:34:48.355Z,4.03
2022-07-25T11:37:16.140Z,4.30
2022-07-25T11:39:45.045Z,4.38
2022-07-25T11:42:13.553Z,3.67
2022-07-25T11:44:47.435Z,3.90
2022-07-25T11:47:28.465Z,3.38
2022-07-25T11:49:56.639Z,3.28
2022-07-25T11:52:24.639Z,3.93
2022-07-25T11:54:55.472Z,3.47
2022-07-25T11:57:23.818Z,3.50
2022-07-25T11:59:51.576Z,3.67
2022-07-25T12:02:22.984Z,3.00
2022-07-25T12:04:59.025Z,3.30
2022-07-25T12:07:39.718Z,3.10
2022-07-25T12:10:32.262Z,2.60
2022-07-25T12:13:01.472Z,3.38
2022-07-25T12:17:57.093Z,2.90
2022-07-25T12:20:26.855Z,3.03
2022-07-25T12:22:55.127Z,3.03
2022-07-25T12:25:26.323Z,3.20
2022-07-25T12:27:58.789Z,2.55
2022-07-25T12:30:31.109Z,2.92
2022-07-25T12:32:59.270Z,3.00
2022-07-25T12:35:28.386Z,2.87
2022-07-25T12:37:56.042Z,2.92
2022-07-25T12:40:23.702Z,2.97
2022-07-25T12:42:51.423Z,2.85
2022-07-25T12:45:19.304Z,3.38
2022-07-25T12:47:47.536Z,2.97
2022-07-25T12:50:15.199Z,3.03
2022-07-25T12:52:44.422Z,2.65
2022-07-25T12:55:12.839Z,2.70
2022-07-25T12:57:40.726Z,3.20
2022-07-25T13:00:09.339Z,2.97
2022-07-25T13:02:37.146Z,2.65
2022-07-25T13:05:05.062Z,2.92
2022-07-25T13:07:33.105Z,2.70
2022-07-25T13:10:02.189Z,2.50
2022-07-25T13:12:30.213Z,2.42
2022-07-25T13:14:57.834Z,2.67
2022-07-25T13:17:27.802Z,2.40
2022-07-25T13:19:55.829Z,2.35
2022-07-25T13:22:23.521Z,2.33
2022-07-25T13:24:51.169Z,2.85
2022-07-25T13:27:20.198Z,2.03
2022-07-25T13:32:33.857Z,2.10
2022-07-25T13:35:01.564Z,1.90
2022-07-25T13:37:29.311Z,1.83
2022-07-25T13:39:56.968Z,1.52
2022-07-25T13:42:26.090Z,1.75
2022-07-25T13:44:53.729Z,2.28
2022-07-25T13:47:22.947Z,1.95
2022-07-25T13:49:53.390Z,2.00
2022-07-25T13:52:20.970Z,1.35
2022-07-25T13:54:48.981Z,1.83
2022-07-25T13:57:16.647Z,1.30
2022-07-25T13:59:45.719Z,1.60
2022-07-25T14:04:41.112Z,1.50
2022-07-25T14:07:08.995Z,1.60
2022-07-25T14:09:36.611Z,1.40
2022-07-25T14:12:04.495Z,1.50
2022-07-25T14:14:32.156Z,1.48
2022-07-25T14:17:01.167Z,1.63
2022-07-25T14:19:28.949Z,1.38
2022-07-25T14:21:56.601Z,1.17
2022-07-25T14:24:24.190Z,1.40
2022-07-25T14:26:52.166Z,1.40
2022-07-25T14:29:19.788Z,1.48
2022-07-25T14:31:47.933Z,1.33
2022-07-25T14:34:34.063Z,1.48
2022-07-25T14:37:03.146Z,1.70
2022-07-25T14:41:59.421Z,1.58
2022-07-25T14:44:28.617Z,2.00
2022-07-25T14:49:24.395Z,1.55
2022-07-25T14:51:52.279Z,1.70
2022-07-25T14:54:21.433Z,1.65
2022-07-25T14:59:17.618Z,1.80
2022-07-25T15:01:45.257Z,1.80
2022-07-25T15:04:12.822Z,1.50
2022-07-25T15:06:40.613Z,1.63
2022-07-25T15:09:08.707Z,1.63
2022-07-25T15:11:38.059Z,1.63
2022-07-25T15:14:05.690Z,1.80
2022-07-25T15:16:33.375Z,1.90
2022-07-25T15:19:17.114Z,1.80
2022-07-25T15:21:45.381Z,1.42
2022-07-25T15:24:13.035Z,1.80
2022-07-25T15:26:42.221Z,2.80
2022-07-25T15:31:38.258Z,2.35
2022-07-25T15:34:05.973Z,1.88
2022-07-25T15:36:33.614Z,1.90
2022-07-25T15:39:01.314Z,2.05
2022-07-25T15:41:29.052Z,1.95
2022-07-25T15:43:59.719Z,1.85
2022-07-25T15:46:28.890Z,2.03
2022-07-25T15:51:26.155Z,1.55
2022-07-25T15:53:53.770Z,1.73
2022-07-25T15:56:21.514Z,1.52
2022-07-25T15:58:49.405Z,1.75
2022-07-25T16:01:18.539Z,1.75
2022-07-25T16:06:18.632Z,1.73
2022-07-25T16:08:46.663Z,1.60
2022-07-25T16:11:24.361Z,1.33
2022-07-25T16:13:51.970Z,1.70
2022-07-25T16:16:22.044Z,1.25
2022-07-25T16:18:49.783Z,1.42
2022-07-25T16:21:17.413Z,1.30
2022-07-25T16:23:45.823Z,1.60
2022-07-25T16:26:13.680Z,1.27
2022-07-25T16:28:41.671Z,1.20
2022-07-25T16:31:09.479Z,1.45
2022-07-25T16:33:38.541Z,1.30
2022-07-25T16:36:06.536Z,1.40
2022-07-25T16:38:34.119Z,1.50
2022-07-25T16:41:01.885Z,1.42
2022-07-25T16:43:29.441Z,1.20
2022-07-25T16:45:57.037Z,1.40
2022-07-25T16:48:25.052Z,1.55
2022-07-25T16:50:54.173Z,1.67
2022-07-25T16:53:21.768Z,1.55
2022-07-25T16:55:49.439Z,1.40
2022-07-25T16:58:17.046Z,1.10
2022-07-25T17:00:44.698Z,1.58
2022-07-25T17:03:12.378Z,1.30
2022-07-25T17:05:40.087Z,1.77
2022-07-25T17:08:09.074Z,1.40
2022-07-25T17:10:37.000Z,1.75
2022-07-25T17:13:04.633Z,1.52
2022-07-25T17:15:32.260Z,1.80
2022-07-25T17:17:59.954Z,1.50
2022-07-25T17:20:27.592Z,1.80
2022-07-25T17:22:55.367Z,1.33
2022-07-25T17:25:24.380Z,1.60
2022-07-25T17:27:52.043Z,1.70
2022-07-25T17:30:19.637Z,1.77
2022-07-25T17:32:47.349Z,1.60
2022-07-25T17:35:14.971Z,1.67
2022-07-25T17:37:42.622Z,2.03
2022-07-25T17:40:13.814Z,1.70
2022-07-25T17:42:45.400Z,1.70
2022-07-25T17:45:13.300Z,1.40
2022-07-25T17:47:41.038Z,1.80
2022-07-25T17:50:09.133Z,1.90
2022-07-25T17:52:36.746Z,1.50
2022-07-25T17:55:04.561Z,1.75
2022-07-25T17:57:32.968Z,1.95
2022-07-25T18:00:02.304Z,1.60
2022-07-25T18:03:09.477Z,1.73
2022-07-25T18:05:37.186Z,2.00
2022-07-25T18:08:05.098Z,1.80
2022-07-25T18:10:33.207Z,2.00
2022-07-25T18:13:02.076Z,2.40
2022-07-25T18:15:31.400Z,1.85
2022-07-25T18:17:59.373Z,1.38
2022-07-25T18:20:28.078Z,2.00
2022-07-25T18:22:55.737Z,1.67
2022-07-25T18:25:23.627Z,1.45
2022-07-25T18:27:51.340Z,1.80
2022-07-25T18:30:19.094Z,1.40
2022-07-25T18:32:48.298Z,1.42
2022-07-25T18:37:43.412Z,1.45
2022-07-25T18:40:11.615Z,1.70
2022-07-25T18:42:39.340Z,1.75
2022-07-25T18:45:07.509Z,1.83
2022-07-25T18:47:35.759Z,1.48
2022-07-25T18:50:05.112Z,1.48
2022-07-25T18:52:35.130Z,1.70
2022-07-25T18:55:03.049Z,1.45
2022-07-25T18:57:30.974Z,1.73
2022-07-25T19:00:02.809Z,1.90
2022-07-25T19:02:31.303Z,1.60
2022-07-25T19:04:59.121Z,1.52
2022-07-25T19:07:29.813Z,1.30
2022-07-25T19:09:57.477Z,1.27
2022-07-25T19:12:26.492Z,1.08
2022-07-25T19:14:54.190Z,1.48
2022-07-25T19:17:21.910Z,1.20
2022-07-25T19:19:49.523Z,1.10
2022-07-25T19:22:17.384Z,1.20
2022-07-25T19:24:46.370Z,1.45
2022-07-25T19:27:13.978Z,1.30
2022-07-25T19:29:42.646Z,0.90
2022-07-25T19:32:10.289Z,1.20
2022-07-25T19:34:37.968Z,1.05
2022-07-25T19:37:05.822Z,1.10
2022-07-25T19:39:33.593Z,1.13
2022-07-25T19:42:02.693Z,1.10
2022-07-25T19:44:30.365Z,1.23
2022-07-25T19:46:58.912Z,1.33
2022-07-25T19:49:26.513Z,1.25
2022-07-25T19:51:54.139Z,1.00
2022-07-25T19:54:21.841Z,0.88
2022-07-25T19:56:49.860Z,1.20
2022-07-25T19:59:18.834Z,1.00
2022-07-25T20:01:47.250Z,0.70
2022-07-25T20:04:40.489Z,0.77
2022-07-25T20:07:08.224Z,0.90
2022-07-25T20:09:35.982Z,0.90
2022-07-25T20:12:03.875Z,1.33
2022-07-25T20:14:32.802Z,1.00
2022-07-25T20:17:00.513Z,0.90
2022-07-25T20:19:28.193Z,0.90
2022-07-25T20:21:56.826Z,0.95
2022-07-25T20:24:24.456Z,0.63
2022-07-25T20:26:52.221Z,0.80
2022-07-25T20:29:19.845Z,0.82
2022-07-25T20:31:48.929Z,0.77
2022-07-25T20:34:16.623Z,0.85
2022-07-25T20:36:47.309Z,0.60
2022-07-25T20:39:14.868Z,0.77
2022-07-25T20:41:42.435Z,0.80
2022-07-25T20:44:12.494Z,0.73
2022-07-25T20:46:44.469Z,1.17
2022-07-25T20:49:14.118Z,1.00
2022-07-25T20:51:41.760Z,0.65
2022-07-25T20:54:09.502Z,0.85
2022-07-25T20:56:37.054Z,0.75
2022-07-25T20:59:05.169Z,0.60
2022-07-25T21:01:32.998Z,1.00
2022-07-25T21:04:04.300Z,0.70
2022-07-25T21:06:37.000Z,0.70
2022-07-25T21:09:05.406Z,0.73
2022-07-25T21:11:33.553Z,0.85
2022-07-25T21:14:01.201Z,0.70
2022-07-25T21:16:29.222Z,0.60
2022-07-25T21:18:57.270Z,0.85
2022-07-25T21:21:25.147Z,0.60
2022-07-25T21:23:54.240Z,0.80
2022-07-25T21:26:21.944Z,0.82
2022-07-25T21:28:49.559Z,1.00
2022-07-25T21:31:18.248Z,1.15
2022-07-25T21:33:45.911Z,0.98
2022-07-25T21:36:13.478Z,1.30
2022-07-25T21:38:41.057Z,0.75
2022-07-25T21:41:10.142Z,0.68
2022-07-25T21:43:37.745Z,0.73
2022-07-25T21:46:05.465Z,0.55
2022-07-25T21:49:02.804Z,1.45
2022-07-25T21:51:40.520Z,0.73
2022-07-25T21:54:08.987Z,0.75
2022-07-25T21:56:37.930Z,0.75
2022-07-25T21:59:06.406Z,1.45
2022-07-25T22:01:34.258Z,1.03
2022-07-25T22:04:01.960Z,0.77
2022-07-25T22:06:29.624Z,0.70
2022-07-25T22:09:01.502Z,0.77
2022-07-25T22:11:42.925Z,1.20
2022-07-25T22:14:15.505Z,0.70
2022-07-25T22:16:43.225Z,0.70
2022-07-25T22:19:11.434Z,0.63
2022-07-25T22:21:39.946Z,0.80
2022-07-25T22:24:07.744Z,0.60
2022-07-25T22:26:35.347Z,0.70
2022-07-25T22:29:15.540Z,0.93
2022-07-25T22:31:44.408Z,1.15
2022-07-25T22:34:12.098Z,0.95
2022-07-25T22:36:39.782Z,0.63
2022-07-25T22:39:07.761Z,1.05
2022-07-25T22:41:35.585Z,0.68
2022-07-25T22:44:03.311Z,1.00
2022-07-25T22:46:32.375Z,0.70
2022-07-25T22:49:00.220Z,0.57
2022-07-25T22:51:28.053Z,0.77
2022-07-25T22:53:55.659Z,0.98
2022-07-25T22:56:23.343Z,0.90
2022-07-25T22:58:50.982Z,0.70
2022-07-25T23:01:18.641Z,0.73
2022-07-25T23:03:49.792Z,0.70
2022-07-25T23:06:18.042Z,0.70
2022-07-25T23:08:45.615Z,0.63
2022-07-25T23:11:13.330Z,0.50
2022-07-25T23:13:40.988Z,0.70
2022-07-25T23:16:10.504Z,0.85
2022-07-25T23:18:38.418Z,0.70
2022-07-25T23:21:07.409Z,0.88
2022-07-25T23:23:35.017Z,0.57
2022-07-25T23:26:02.617Z,0.57
2022-07-25T23:28:30.381Z,0.73
2022-07-25T23:30:57.970Z,0.70
2022-07-25T23:33:26.117Z,0.60
2022-07-25T23:35:53.692Z,0.50
2022-07-25T23:38:22.808Z,0.70
2022-07-25T23:40:50.460Z,0.75
2022-07-25T23:43:52.187Z,0.65
2022-07-25T23:46:08.120Z,1.45
2022-07-25T23:48:35.787Z,0.70
2022-07-25T23:51:03.406Z,0.82
2022-07-25T23:53:35.662Z,0.80
2022-07-25T23:56:03.294Z,1.30
2022-07-25T23:58:30.957Z,0.70
